sensor_id;sensor_type;location;lat;lon;timestamp;pressure;altitude;pressure_sealevel;temperature;humidity
30347;BME280;19047;44.782;20.468;2022-09-20T00:01:31;101133.38;;;12.17;80.69
30347;BME280;19047;44.782;20.468;2022-09-20T00:04:48;101125.06;;;12.06;80.55
30347;BME280;19047;44.782;20.468;2022-09-20T00:08:19;101128.19;;;12.15;80.34
30347;BME280;19047;44.782;20.468;2022-09-20T00:11:37;101085.47;;;11.97;80.37
30347;BME280;19047;44.782;20.468;2022-09-20T00:15:08;101127.25;;;12.32;80.61
30347;BME280;19047;44.782;20.468;2022-09-20T00:18:26;101130.78;;;12.36;80.10
30347;BME280;19047;44.782;20.468;2022-09-20T00:21:56;101120.78;;;12.35;80.31
30347;BME280;19047;44.782;20.468;2022-09-20T00:25:28;101131.59;;;12.37;80.29
30347;BME280;19047;44.782;20.468;2022-09-20T00:28:45;101129.56;;;12.41;80.45
30347;BME280;19047;44.782;20.468;2022-09-20T00:32:16;101062.94;;;12.04;80.23
30347;BME280;19047;44.782;20.468;2022-09-20T00:35:34;101126.69;;;12.44;80.22
30347;BME280;19047;44.782;20.468;2022-09-20T00:39:04;101133.09;;;12.45;80.38
30347;BME280;19047;44.782;20.468;2022-09-20T00:42:26;101121.09;;;12.44;80.48
30347;BME280;19047;44.782;20.468;2022-09-20T00:45:56;101123.88;;;12.48;80.30
30347;BME280;19047;44.782;20.468;2022-09-20T00:49:14;101131.50;;;12.48;80.18
30347;BME280;19047;44.782;20.468;2022-09-20T00:52:44;101125.06;;;12.47;80.06
30347;BME280;19047;44.782;20.468;2022-09-20T00:56:11;101133.09;;;12.45;80.10
30347;BME280;19047;44.782;20.468;2022-09-20T00:59:42;101125.91;;;12.44;79.93
30347;BME280;19047;44.782;20.468;2022-09-20T01:03:03;101129.16;;;12.42;80.27
30347;BME280;19047;44.782;20.468;2022-09-20T01:06:36;101056.53;;;12.03;79.97
30347;BME280;19047;44.782;20.468;2022-09-20T01:09:53;101126.75;;;12.41;80.12
30347;BME280;19047;44.782;20.468;2022-09-20T01:13:24;101123.94;;;12.41;80.14
30347;BME280;19047;44.782;20.468;2022-09-20T01:16:41;101121.13;;;12.41;79.87
30347;BME280;19047;44.782;20.468;2022-09-20T01:27:17;101113.09;;;12.43;80.30
30347;BME280;19047;44.782;20.468;2022-09-20T01:30:59;101097.81;;;12.44;80.30
30347;BME280;19047;44.782;20.468;2022-09-20T01:41:22;101092.97;;;12.48;80.15
30347;BME280;19047;44.782;20.468;2022-09-20T01:48:37;101049.63;;;12.15;80.22
30347;BME280;19047;44.782;20.468;2022-09-20T01:59:19;101095.91;;;12.37;80.31
30347;BME280;19047;44.782;20.468;2022-09-20T02:20:22;101038.25;;;11.88;80.46
30347;BME280;19047;44.782;20.468;2022-09-20T02:34:54;101099.41;;;12.04;80.64
30347;BME280;19047;44.782;20.468;2022-09-20T02:49:28;101074.25;;;11.97;80.53
30347;BME280;19047;44.782;20.468;2022-09-20T02:59:56;101084.66;;;11.96;80.72
30347;BME280;19047;44.782;20.468;2022-09-20T03:07:11;101091.88;;;11.97;80.79
30347;BME280;19047;44.782;20.468;2022-09-20T03:14:54;101093.47;;;11.98;80.45
30347;BME280;19047;44.782;20.468;2022-09-20T03:18:05;101097.88;;;11.99;80.65
30347;BME280;19047;44.782;20.468;2022-09-20T03:24:58;101087.00;;;12.01;80.22
30347;BME280;19047;44.782;20.468;2022-09-20T03:32:20;101092.22;;;12.03;80.41
30347;BME280;19047;44.782;20.468;2022-09-20T03:46:38;101088.16;;;12.11;80.04
30347;BME280;19047;44.782;20.468;2022-09-20T03:57:31;101089.28;;;12.17;79.90
30347;BME280;19047;44.782;20.468;2022-09-20T04:00:59;101102.91;;;12.19;79.87
30347;BME280;19047;44.782;20.468;2022-09-20T04:21:54;101091.56;;;12.29;79.73
30347;BME280;19047;44.782;20.468;2022-09-20T04:25:36;101074.44;;;12.20;79.81
30347;BME280;19047;44.782;20.468;2022-09-20T04:29:43;101048.22;;;11.93;79.77
30347;BME280;19047;44.782;20.468;2022-09-20T04:43:44;101110.00;;;12.30;79.58
30347;BME280;19047;44.782;20.468;2022-09-20T04:50:58;101154.88;;;12.34;79.28
30347;BME280;19047;44.782;20.468;2022-09-20T04:58:16;101149.63;;;12.36;79.39
30347;BME280;19047;44.782;20.468;2022-09-20T05:16:02;101095.91;;;11.93;79.98
30347;BME280;19047;44.782;20.468;2022-09-20T05:26:37;101149.22;;;12.37;79.91
30347;BME280;19047;44.782;20.468;2022-09-20T05:30:31;101142.75;;;12.44;79.97
30347;BME280;19047;44.782;20.468;2022-09-20T05:49:02;101140.53;;;13.00;80.16
30347;BME280;19047;44.782;20.468;2022-09-20T05:56:10;101143.06;;;13.25;80.33
30347;BME280;19047;44.782;20.468;2022-09-20T06:17:21;101130.44;;;13.94;79.84
30347;BME280;19047;44.782;20.468;2022-09-20T06:21:08;101146.78;;;14.02;79.43
30347;BME280;19047;44.782;20.468;2022-09-20T06:28:21;101114.69;;;13.96;79.06
30347;BME280;19047;44.782;20.468;2022-09-20T06:31:43;101083.63;;;13.80;78.99
30347;BME280;19047;44.782;20.468;2022-09-20T06:35:14;101127.19;;;14.18;78.56
30347;BME280;19047;44.782;20.468;2022-09-20T06:42:35;101115.59;;;14.16;78.35
30347;BME280;19047;44.782;20.468;2022-09-20T06:45:54;101145.81;;;14.36;78.06
30347;BME280;19047;44.782;20.468;2022-09-20T06:49:24;101141.34;;;14.38;77.94
30347;BME280;19047;44.782;20.468;2022-09-20T06:52:43;101148.16;;;14.41;77.86
30347;BME280;19047;44.782;20.468;2022-09-20T06:56:19;101142.09;;;14.42;77.40
30347;BME280;19047;44.782;20.468;2022-09-20T06:59:38;101125.38;;;14.32;77.55
30347;BME280;19047;44.782;20.468;2022-09-20T07:03:08;101114.16;;;14.28;77.24
30347;BME280;19047;44.782;20.468;2022-09-20T07:06:28;101157.59;;;14.54;77.37
30347;BME280;19047;44.782;20.468;2022-09-20T07:10:03;101153.59;;;14.51;77.23
30347;BME280;19047;44.782;20.468;2022-09-20T07:13:21;101153.78;;;14.41;77.38
30347;BME280;19047;44.782;20.468;2022-09-20T07:16:52;101151.91;;;14.57;77.24
30347;BME280;19047;44.782;20.468;2022-09-20T07:20:10;101168.59;;;14.68;77.48
30347;BME280;19047;44.782;20.468;2022-09-20T07:23:45;101176.97;;;14.72;77.07
30347;BME280;19047;44.782;20.468;2022-09-20T07:27:10;101149.88;;;14.58;77.28
30347;BME280;19047;44.782;20.468;2022-09-20T07:30:41;101139.31;;;14.62;76.93
30347;BME280;19047;44.782;20.468;2022-09-20T07:33:59;101172.25;;;14.88;77.35
30347;BME280;19047;44.782;20.468;2022-09-20T07:37:29;101123.78;;;14.54;77.17
30347;BME280;19047;44.782;20.468;2022-09-20T07:41:13;101174.34;;;15.04;76.97
30347;BME280;19047;44.782;20.468;2022-09-20T07:44:44;101117.09;;;14.68;77.10
30347;BME280;19047;44.782;20.468;2022-09-20T07:48:06;101168.56;;;15.11;77.38
30347;BME280;19047;44.782;20.468;2022-09-20T07:51:38;101179.09;;;15.27;77.10
30347;BME280;19047;44.782;20.468;2022-09-20T07:54:54;101184.88;;;15.40;77.19
30347;BME280;19047;44.782;20.468;2022-09-20T07:58:27;101186.69;;;15.50;76.97
30347;BME280;19047;44.782;20.468;2022-09-20T08:01:45;101159.72;;;15.49;77.22
30347;BME280;19047;44.782;20.468;2022-09-20T08:05:17;101174.47;;;15.76;77.08
30347;BME280;19047;44.782;20.468;2022-09-20T08:08:35;101136.97;;;15.76;77.07
30347;BME280;19047;44.782;20.468;2022-09-20T08:12:07;101161.00;;;16.16;77.07
30347;BME280;19047;44.782;20.468;2022-09-20T08:15:24;101152.69;;;16.25;77.33
30347;BME280;19047;44.782;20.468;2022-09-20T08:18:57;101165.09;;;16.76;77.24
30347;BME280;19047;44.782;20.468;2022-09-20T08:22:15;101152.44;;;17.10;77.76
30347;BME280;19047;44.782;20.468;2022-09-20T08:25:47;101151.97;;;17.53;76.92
30347;BME280;19047;44.782;20.468;2022-09-20T08:29:05;101167.44;;;18.03;77.41
30347;BME280;19047;44.782;20.468;2022-09-20T08:32:38;101167.81;;;18.52;76.75
30347;BME280;19047;44.782;20.468;2022-09-20T08:35:57;101169.78;;;19.11;77.57
30347;BME280;19047;44.782;20.468;2022-09-20T08:39:28;101161.66;;;19.66;76.26
30347;BME280;19047;44.782;20.468;2022-09-20T08:42:45;101131.00;;;20.01;76.47
30347;BME280;19047;44.782;20.468;2022-09-20T08:46:19;101164.66;;;20.88;74.45
30347;BME280;19047;44.782;20.468;2022-09-20T08:49:39;101155.91;;;21.56;75.17
30347;BME280;19047;44.782;20.468;2022-09-20T08:53:17;101162.13;;;22.29;72.82
30347;BME280;19047;44.782;20.468;2022-09-20T08:57:02;101143.19;;;22.88;71.05
30347;BME280;19047;44.782;20.468;2022-09-20T09:00:35;101150.06;;;23.64;69.96
30347;BME280;19047;44.782;20.468;2022-09-20T09:04:01;101155.78;;;24.29;68.76
30347;BME280;19047;44.782;20.468;2022-09-20T09:07:34;101132.47;;;24.77;66.57
30347;BME280;19047;44.782;20.468;2022-09-20T09:10:58;101149.75;;;25.34;65.72
30347;BME280;19047;44.782;20.468;2022-09-20T09:14:38;101142.84;;;25.72;63.37
30347;BME280;19047;44.782;20.468;2022-09-20T09:18:12;101127.41;;;26.01;63.06
30347;BME280;19047;44.782;20.468;2022-09-20T09:22:00;101129.00;;;26.39;61.25
30347;BME280;19047;44.782;20.468;2022-09-20T09:25:30;101088.38;;;26.63;61.02
30347;BME280;19047;44.782;20.468;2022-09-20T09:29:22;101125.13;;;27.29;60.19
30347;BME280;19047;44.782;20.468;2022-09-20T09:32:40;101099.53;;;27.53;60.30
30347;BME280;19047;44.782;20.468;2022-09-20T09:36:20;101118.59;;;28.01;57.02
30347;BME280;19047;44.782;20.468;2022-09-20T09:39:41;101110.19;;;28.25;56.08
30347;BME280;19047;44.782;20.468;2022-09-20T09:43:20;101092.13;;;28.30;54.48
30347;BME280;19047;44.782;20.468;2022-09-20T09:46:41;101108.00;;;28.48;54.52
30347;BME280;19047;44.782;20.468;2022-09-20T09:50:29;101092.97;;;28.78;53.16
30347;BME280;19047;44.782;20.468;2022-09-20T09:53:58;101076.78;;;29.10;50.79
30347;BME280;19047;44.782;20.468;2022-09-20T09:57:59;101066.41;;;29.37;51.74
30347;BME280;19047;44.782;20.468;2022-09-20T10:09:20;101096.44;;;29.77;49.98
30347;BME280;19047;44.782;20.468;2022-09-20T10:20:08;101009.47;;;28.25;49.49
30347;BME280;19047;44.782;20.468;2022-09-20T10:31:21;101092.97;;;27.19;50.57
30347;BME280;19047;44.782;20.468;2022-09-20T10:35:10;101076.09;;;26.57;51.26
30347;BME280;19047;44.782;20.468;2022-09-20T10:38:37;101090.59;;;26.31;51.60
30347;BME280;19047;44.782;20.468;2022-09-20T10:42:39;101088.28;;;25.98;51.78
30347;BME280;19047;44.782;20.468;2022-09-20T10:46:39;101091.34;;;25.83;52.34
30347;BME280;19047;44.782;20.468;2022-09-20T10:54:08;101088.44;;;25.77;52.92
30347;BME280;19047;44.782;20.468;2022-09-20T11:02:54;101082.59;;;25.66;52.95
30347;BME280;19047;44.782;20.468;2022-09-20T11:10:11;101083.94;;;25.39;54.25
30347;BME280;19047;44.782;20.468;2022-09-20T11:22:15;101029.44;;;25.65;53.24
30347;BME280;19047;44.782;20.468;2022-09-20T11:29:35;101056.28;;;26.64;51.42
30347;BME280;19047;44.782;20.468;2022-09-20T11:36:37;101058.75;;;27.05;49.77
30347;BME280;19047;44.782;20.468;2022-09-20T11:40:14;101063.22;;;27.22;50.90
30347;BME280;19047;44.782;20.468;2022-09-20T11:43:49;101058.50;;;27.14;51.91
30347;BME280;19047;44.782;20.468;2022-09-20T11:47:21;101020.63;;;26.93;51.53
30347;BME280;19047;44.782;20.468;2022-09-20T11:58:27;101067.00;;;26.69;51.44
30347;BME280;19047;44.782;20.468;2022-09-20T12:01:44;101053.16;;;26.68;52.04
30347;BME280;19047;44.782;20.468;2022-09-20T12:05:31;101047.16;;;26.66;50.37
30347;BME280;19047;44.782;20.468;2022-09-20T12:08:51;101010.34;;;26.53;51.88
30347;BME280;19047;44.782;20.468;2022-09-20T12:12:39;101012.97;;;26.57;49.62
30347;BME280;19047;44.782;20.468;2022-09-20T12:16:04;101035.94;;;26.73;51.61
30347;BME280;19047;44.782;20.468;2022-09-20T12:19:38;100995.19;;;26.52;50.45
30347;BME280;19047;44.782;20.468;2022-09-20T12:27:20;101033.41;;;26.22;54.07
30347;BME280;19047;44.782;20.468;2022-09-20T12:30:41;101024.56;;;25.71;55.93
30347;BME280;19047;44.782;20.468;2022-09-20T12:37:29;101031.72;;;24.72;55.19
30347;BME280;19047;44.782;20.468;2022-09-20T12:41:09;101036.50;;;24.35;54.02
30347;BME280;19047;44.782;20.468;2022-09-20T12:48:17;101023.38;;;23.68;55.20
30347;BME280;19047;44.782;20.468;2022-09-20T12:51:35;100977.63;;;23.18;57.13
30347;BME280;19047;44.782;20.468;2022-09-20T12:58:48;101014.66;;;22.98;56.44
30347;BME280;19047;44.782;20.468;2022-09-20T13:09:37;101015.56;;;22.36;56.68
30347;BME280;19047;44.782;20.468;2022-09-20T13:12:56;100951.97;;;21.82;56.85
30347;BME280;19047;44.782;20.468;2022-09-20T13:19:47;101008.72;;;21.95;57.85
30347;BME280;19047;44.782;20.468;2022-09-20T13:23:24;101002.28;;;21.85;57.23
30347;BME280;19047;44.782;20.468;2022-09-20T13:26:43;100944.69;;;21.33;57.34
30347;BME280;19047;44.782;20.468;2022-09-20T13:30:18;100994.78;;;21.73;57.99
30347;BME280;19047;44.782;20.468;2022-09-20T13:33:36;100987.69;;;21.68;58.00
30347;BME280;19047;44.782;20.468;2022-09-20T13:37:07;100986.25;;;21.64;58.13
30347;BME280;19047;44.782;20.468;2022-09-20T13:44:12;100967.72;;;21.44;58.15
30347;BME280;19047;44.782;20.468;2022-09-20T13:47:32;100978.75;;;21.52;57.63
30347;BME280;19047;44.782;20.468;2022-09-20T13:51:02;100986.69;;;21.47;58.10
30347;BME280;19047;44.782;20.468;2022-09-20T13:54:38;100983.69;;;21.42;58.11
30347;BME280;19047;44.782;20.468;2022-09-20T14:01:34;100984.72;;;21.30;57.74
30347;BME280;19047;44.782;20.468;2022-09-20T14:05:05;100993.59;;;21.23;57.84
30347;BME280;19047;44.782;20.468;2022-09-20T14:12:00;101013.59;;;20.95;58.20
30347;BME280;19047;44.782;20.468;2022-09-20T14:15:20;101016.31;;;20.71;59.04
30347;BME280;19047;44.782;20.468;2022-09-20T14:18:50;101011.75;;;20.47;59.36
30347;BME280;19047;44.782;20.468;2022-09-20T14:22:13;101026.56;;;20.23;59.86
30347;BME280;19047;44.782;20.468;2022-09-20T14:26:03;101027.00;;;20.03;60.91
30347;BME280;19047;44.782;20.468;2022-09-20T14:32:57;101034.69;;;19.76;61.57
30347;BME280;19047;44.782;20.468;2022-09-20T14:36:18;101031.50;;;19.64;61.75
30347;BME280;19047;44.782;20.468;2022-09-20T14:39:52;101036.03;;;19.53;62.07
30347;BME280;19047;44.782;20.468;2022-09-20T14:46:49;101041.28;;;19.32;63.08
30347;BME280;19047;44.782;20.468;2022-09-20T14:50:22;101058.75;;;19.22;63.34
30347;BME280;19047;44.782;20.468;2022-09-20T14:57:21;101041.81;;;19.09;63.65
30347;BME280;19047;44.782;20.468;2022-09-20T15:04:20;101044.59;;;19.00;64.25
30347;BME280;19047;44.782;20.468;2022-09-20T15:07:54;101043.59;;;18.94;64.55
30347;BME280;19047;44.782;20.468;2022-09-20T15:11:18;101042.97;;;18.90;64.69
30347;BME280;19047;44.782;20.468;2022-09-20T15:14:49;101039.00;;;18.87;65.05
30347;BME280;19047;44.782;20.468;2022-09-20T15:18:13;101041.16;;;18.83;65.23
30347;BME280;19047;44.782;20.468;2022-09-20T15:21:48;101031.69;;;18.77;65.37
30347;BME280;19047;44.782;20.468;2022-09-20T15:25:05;101042.50;;;18.70;65.68
30347;BME280;19047;44.782;20.468;2022-09-20T15:28:35;101033.16;;;18.60;66.03
30347;BME280;19047;44.782;20.468;2022-09-20T15:31:52;101033.81;;;18.51;66.22
30347;BME280;19047;44.782;20.468;2022-09-20T15:35:22;101036.56;;;18.42;66.31
30347;BME280;19047;44.782;20.468;2022-09-20T15:38:48;101043.88;;;18.31;66.56
30347;BME280;19047;44.782;20.468;2022-09-20T15:42:24;101037.00;;;18.19;66.54
30347;BME280;19047;44.782;20.468;2022-09-20T15:45:52;101049.94;;;18.07;66.55
30347;BME280;19047;44.782;20.468;2022-09-20T15:49:24;101035.41;;;17.83;66.69
30347;BME280;19047;44.782;20.468;2022-09-20T15:52:41;101048.44;;;17.81;66.63
30347;BME280;19047;44.782;20.468;2022-09-20T15:56:17;101038.25;;;17.71;66.59
30347;BME280;19047;44.782;20.468;2022-09-20T15:59:35;101040.28;;;17.58;66.59
30347;BME280;19047;44.782;20.468;2022-09-20T16:03:05;101047.50;;;17.46;66.80
30347;BME280;19047;44.782;20.468;2022-09-20T16:06:22;101045.47;;;17.34;66.94
30347;BME280;19047;44.782;20.468;2022-09-20T16:09:54;101045.47;;;17.21;67.11
30347;BME280;19047;44.782;20.468;2022-09-20T16:13:13;101049.84;;;17.09;67.12
30347;BME280;19047;44.782;20.468;2022-09-20T16:16:46;101049.38;;;16.98;67.38
30347;BME280;19047;44.782;20.468;2022-09-20T16:20:03;101064.31;;;16.86;67.68
30347;BME280;19047;44.782;20.468;2022-09-20T16:23:35;101056.13;;;16.75;67.79
30347;BME280;19047;44.782;20.468;2022-09-20T16:26:54;101058.47;;;16.64;67.94
30347;BME280;19047;44.782;20.468;2022-09-20T16:30:24;101049.47;;;16.53;68.16
30347;BME280;19047;44.782;20.468;2022-09-20T16:33:42;100985.28;;;15.96;67.93
30347;BME280;19047;44.782;20.468;2022-09-20T16:37:12;101052.97;;;16.28;68.40
30347;BME280;19047;44.782;20.468;2022-09-20T16:40:32;101058.47;;;16.19;68.62
30347;BME280;19047;44.782;20.468;2022-09-20T16:44:03;100975.00;;;15.57;68.72
30347;BME280;19047;44.782;20.468;2022-09-20T16:47:20;100998.94;;;15.49;69.01
30347;BME280;19047;44.782;20.468;2022-09-20T16:50:55;101072.59;;;15.87;69.13
30347;BME280;19047;44.782;20.468;2022-09-20T16:54:16;101064.41;;;15.76;69.44
30347;BME280;19047;44.782;20.468;2022-09-20T16:57:47;101000.78;;;15.23;69.58
30347;BME280;19047;44.782;20.468;2022-09-20T17:01:04;101062.78;;;15.59;69.75
30347;BME280;19047;44.782;20.468;2022-09-20T17:04:35;101069.81;;;15.51;69.83
30347;BME280;19047;44.782;20.468;2022-09-20T17:07:52;101074.81;;;15.43;70.18
30347;BME280;19047;44.782;20.468;2022-09-20T17:11:30;101078.25;;;15.34;70.19
30347;BME280;19047;44.782;20.468;2022-09-20T17:14:47;101088.44;;;15.28;70.38
30347;BME280;19047;44.782;20.468;2022-09-20T17:18:17;101082.97;;;15.21;70.53
30347;BME280;19047;44.782;20.468;2022-09-20T17:21:34;101086.72;;;15.15;70.72
30347;BME280;19047;44.782;20.468;2022-09-20T17:25:05;101090.88;;;15.10;70.83
30347;BME280;19047;44.782;20.468;2022-09-20T17:28:22;101084.13;;;15.04;71.01
30347;BME280;19047;44.782;20.468;2022-09-20T17:31:51;101086.25;;;15.00;70.99
30347;BME280;19047;44.782;20.468;2022-09-20T17:35:09;101092.38;;;14.95;71.24
30347;BME280;19047;44.782;20.468;2022-09-20T17:38:41;101092.47;;;14.91;71.33
30347;BME280;19047;44.782;20.468;2022-09-20T17:42:02;101090.94;;;14.87;71.45
30347;BME280;19047;44.782;20.468;2022-09-20T17:45:35;101067.97;;;14.69;71.83
30347;BME280;19047;44.782;20.468;2022-09-20T17:48:53;101089.88;;;14.81;71.84
30347;BME280;19047;44.782;20.468;2022-09-20T17:52:23;101101.56;;;14.79;72.00
30347;BME280;19047;44.782;20.468;2022-09-20T17:55:40;101096.78;;;14.76;72.09
30347;BME280;19047;44.782;20.468;2022-09-20T17:59:10;101104.09;;;14.74;72.43
30347;BME280;19047;44.782;20.468;2022-09-20T18:02:28;101050.88;;;14.36;72.52
30347;BME280;19047;44.782;20.468;2022-09-20T18:06:22;101110.25;;;14.69;72.72
30347;BME280;19047;44.782;20.468;2022-09-20T18:09:39;101108.66;;;14.68;72.82
30347;BME280;19047;44.782;20.468;2022-09-20T18:13:11;101123.59;;;14.65;72.89
30347;BME280;19047;44.782;20.468;2022-09-20T18:16:29;101123.22;;;14.63;73.04
30347;BME280;19047;44.782;20.468;2022-09-20T18:20:03;101124.91;;;14.60;73.01
30347;BME280;19047;44.782;20.468;2022-09-20T18:23:22;101125.75;;;14.57;73.17
30347;BME280;19047;44.782;20.468;2022-09-20T18:26:52;101134.63;;;14.55;73.25
30347;BME280;19047;44.782;20.468;2022-09-20T18:30:09;101146.75;;;14.52;73.25
30347;BME280;19047;44.782;20.468;2022-09-20T18:33:39;101067.56;;;14.04;73.35
30347;BME280;19047;44.782;20.468;2022-09-20T18:36:58;101141.63;;;14.47;73.33
30347;BME280;19047;44.782;20.468;2022-09-20T18:40:29;101151.72;;;14.45;73.39
30347;BME280;19047;44.782;20.468;2022-09-20T18:43:47;101145.34;;;14.41;73.56
30347;BME280;19047;44.782;20.468;2022-09-20T18:47:18;101153.38;;;14.39;73.62
30347;BME280;19047;44.782;20.468;2022-09-20T18:50:35;101155.84;;;14.37;73.61
30347;BME280;19047;44.782;20.468;2022-09-20T18:54:06;101154.31;;;14.32;73.73
30347;BME280;19047;44.782;20.468;2022-09-20T18:57:28;101142.31;;;14.28;73.82
30347;BME280;19047;44.782;20.468;2022-09-20T19:11:42;101163.13;;;14.11;74.63
30347;BME280;19047;44.782;20.468;2022-09-20T19:26:02;101156.59;;;13.91;74.86
30347;BME280;19047;44.782;20.468;2022-09-20T19:29:34;101110.50;;;13.58;75.02
30347;BME280;19047;44.782;20.468;2022-09-20T19:32:53;101150.31;;;13.83;75.27
30347;BME280;19047;44.782;20.468;2022-09-20T19:36:25;101149.13;;;13.80;75.26
30347;BME280;19047;44.782;20.468;2022-09-20T19:47:43;101160.06;;;13.75;75.43
30347;BME280;19047;44.782;20.468;2022-09-20T19:51:09;101162.50;;;13.73;75.78
30347;BME280;19047;44.782;20.468;2022-09-20T19:54:26;101164.53;;;13.72;75.82
30347;BME280;19047;44.782;20.468;2022-09-20T19:57:56;101161.34;;;13.70;75.69
30347;BME280;19047;44.782;20.468;2022-09-20T20:01:14;101149.72;;;13.68;76.03
30347;BME280;19047;44.782;20.468;2022-09-20T20:04:45;101162.19;;;13.67;76.00
30347;BME280;19047;44.782;20.468;2022-09-20T20:08:08;101162.22;;;13.64;75.99
30347;BME280;19047;44.782;20.468;2022-09-20T20:28:58;101146.81;;;13.11;76.53
30347;BME280;19047;44.782;20.468;2022-09-20T20:32:28;101186.31;;;13.34;76.50
30347;BME280;19047;44.782;20.468;2022-09-20T20:35:53;101184.00;;;13.29;76.75
30347;BME280;19047;44.782;20.468;2022-09-20T20:39:27;101186.84;;;13.26;76.80
30347;BME280;19047;44.782;20.468;2022-09-20T20:42:47;101194.50;;;13.22;76.76
30347;BME280;19047;44.782;20.468;2022-09-20T20:46:18;101188.16;;;13.18;76.87
30347;BME280;19047;44.782;20.468;2022-09-20T20:49:35;101186.56;;;13.13;76.82
30347;BME280;19047;44.782;20.468;2022-09-20T20:53:06;101196.25;;;13.08;77.04
30347;BME280;19047;44.782;20.468;2022-09-20T20:56:24;101191.47;;;13.05;76.79
30347;BME280;19047;44.782;20.468;2022-09-20T21:00:03;101189.91;;;13.01;77.10
30347;BME280;19047;44.782;20.468;2022-09-20T21:03:20;101192.31;;;12.99;77.00
30347;BME280;19047;44.782;20.468;2022-09-20T21:06:50;101210.84;;;12.96;77.14
30347;BME280;19047;44.782;20.468;2022-09-20T21:10:07;101196.03;;;12.92;77.04
30347;BME280;19047;44.782;20.468;2022-09-20T21:13:38;101194.84;;;12.90;77.10
30347;BME280;19047;44.782;20.468;2022-09-20T21:17:02;101194.91;;;12.86;77.40
30347;BME280;19047;44.782;20.468;2022-09-20T21:20:32;101193.72;;;12.84;77.47
30347;BME280;19047;44.782;20.468;2022-09-20T21:23:50;101192.13;;;12.83;77.49
30347;BME280;19047;44.782;20.468;2022-09-20T21:27:20;101190.94;;;12.80;77.54
30347;BME280;19047;44.782;20.468;2022-09-20T21:30:37;101188.13;;;12.80;77.53
30347;BME280;19047;44.782;20.468;2022-09-20T21:34:09;101188.53;;;12.78;77.62
30347;BME280;19047;44.782;20.468;2022-09-20T21:37:27;101189.75;;;12.77;77.48
30347;BME280;19047;44.782;20.468;2022-09-20T21:41:05;101200.97;;;12.77;77.53
30347;BME280;19047;44.782;20.468;2022-09-20T21:44:27;101195.00;;;12.75;77.85
30347;BME280;19047;44.782;20.468;2022-09-20T21:47:58;101197.81;;;12.75;77.90
30347;BME280;19047;44.782;20.468;2022-09-20T21:51:17;101196.22;;;12.74;77.79
30347;BME280;19047;44.782;20.468;2022-09-20T21:54:50;101199.44;;;12.73;78.00
30347;BME280;19047;44.782;20.468;2022-09-20T21:58:07;101199.84;;;12.71;77.83
30347;BME280;19047;44.782;20.468;2022-09-20T22:01:38;101195.06;;;12.68;77.84
30347;BME280;19047;44.782;20.468;2022-09-20T22:04:55;101204.69;;;12.67;77.96
30347;BME280;19047;44.782;20.468;2022-09-20T22:08:28;101199.94;;;12.64;78.09
30347;BME280;19047;44.782;20.468;2022-09-20T22:11:46;101205.97;;;12.63;78.22
30347;BME280;19047;44.782;20.468;2022-09-20T22:15:19;101211.19;;;12.61;78.06
30347;BME280;19047;44.782;20.468;2022-09-20T22:18:37;101214.03;;;12.57;78.01
30347;BME280;19047;44.782;20.468;2022-09-20T22:22:08;101206.00;;;12.56;78.23
30347;BME280;19047;44.782;20.468;2022-09-20T22:25:26;101198.84;;;12.51;78.11
30347;BME280;19047;44.782;20.468;2022-09-20T22:28:56;101201.25;;;12.49;78.47
30347;BME280;19047;44.782;20.468;2022-09-20T22:32:13;101194.06;;;12.44;78.36
30347;BME280;19047;44.782;20.468;2022-09-20T22:35:43;101212.16;;;12.43;78.34
30347;BME280;19047;44.782;20.468;2022-09-20T22:39:00;101214.97;;;12.40;78.24
30347;BME280;19047;44.782;20.468;2022-09-20T22:42:31;101217.41;;;12.38;78.32
30347;BME280;19047;44.782;20.468;2022-09-20T22:45:50;101194.72;;;12.15;78.44
30347;BME280;19047;44.782;20.468;2022-09-20T22:49:20;101217.84;;;12.33;78.35
30347;BME280;19047;44.782;20.468;2022-09-20T22:52:37;101218.69;;;12.30;78.68
30347;BME280;19047;44.782;20.468;2022-09-20T22:56:10;101221.88;;;12.28;78.59
30347;BME280;19047;44.782;20.468;2022-09-20T22:59:27;101211.06;;;12.27;78.54
30347;BME280;19047;44.782;20.468;2022-09-20T23:02:58;101133.25;;;11.79;78.94
30347;BME280;19047;44.782;20.468;2022-09-20T23:06:19;101139.28;;;11.74;78.89
30347;BME280;19047;44.782;20.468;2022-09-20T23:09:53;101211.94;;;12.20;78.81
30347;BME280;19047;44.782;20.468;2022-09-20T23:13:10;101208.34;;;12.20;79.05
30347;BME280;19047;44.782;20.468;2022-09-20T23:16:41;101208.75;;;12.18;78.92
30347;BME280;19047;44.782;20.468;2022-09-20T23:19:58;101208.75;;;12.18;78.85
30347;BME280;19047;44.782;20.468;2022-09-20T23:23:29;101200.31;;;12.18;79.17
30347;BME280;19047;44.782;20.468;2022-09-20T23:26:46;101200.72;;;12.17;79.01
30347;BME280;19047;44.782;20.468;2022-09-20T23:30:18;101201.13;;;12.15;79.38
30347;BME280;19047;44.782;20.468;2022-09-20T23:33:35;101198.75;;;12.14;79.08
30347;BME280;19047;44.782;20.468;2022-09-20T23:37:07;101192.75;;;12.12;79.38
30347;BME280;19047;44.782;20.468;2022-09-20T23:40:24;101197.19;;;12.09;79.42
30347;BME280;19047;44.782;20.468;2022-09-20T23:43:53;101201.19;;;12.08;79.35
30347;BME280;19047;44.782;20.468;2022-09-20T23:47:10;101205.63;;;12.05;79.17
30347;BME280;19047;44.782;20.468;2022-09-20T23:50:41;101192.41;;;12.02;79.09
30347;BME280;19047;44.782;20.468;2022-09-20T23:53:58;101199.66;;;12.00;79.37